This is the latest recevied weather packets stored in our database for station/object NF3Q. If no packets are shown the sender has not sent any weather packets the latest 10 day(s).
| Time | Temp. | Humidity | Pressure | Rain* | Wind** | Luminosity | Snow |
|---|---|---|---|---|---|---|---|
| 1777452004 | 13.89° C | 90% | 1011.6 hPa | 0 mm | - | - | - |
| 1777449305 | 13.89° C | 92% | 1011.5 hPa | 0 mm | - | - | - |
| 1777448103 | 13.89° C | 91% | 1011.5 hPa | 0 mm | - | - | - |
| 1777446606 | 14.44° C | 91% | 1011.6 hPa | 0 mm | - | - | - |
| 1777445705 | 14.44° C | 91% | 1011.9 hPa | 0 mm | - | - | - |
| 1777443005 | 15° C | 89% | 1012.1 hPa | 0 mm | - | - | - |
| 1777442703 | 15° C | 89% | 1012.1 hPa | 0 mm | - | - | - |
| 1777442424 | 15° C | 89% | 1012.3 hPa | 0 mm | - | - | - |
| 1777441515 | 15° C | 88% | 1012.4 hPa | 0 mm | - | - | - |
| 1777436110 | 17.22° C | 82% | 1012.9 hPa | 0 mm | - | - | - |
| 1777435806 | 17.78° C | 81% | 1013 hPa | 0 mm | - | - | - |
| 1777435220 | 17.78° C | 81% | 1013.2 hPa | 0 mm | - | - | - |
| 1777432205 | 18.33° C | 80% | 1012.9 hPa | 0 mm | - | - | - |
| 1777431906 | 18.33° C | 80% | 1012.8 hPa | 0 mm | - | - | - |
| 1777431308 | 18.33° C | 80% | 1012.7 hPa | 0 mm | - | - | - |
| 1777429818 | 18.33° C | 80% | 1013 hPa | 0 mm | - | - | - |
| 1777427704 | 18.33° C | 80% | 1013.2 hPa | 0 mm | - | - | - |
| 1777427120 | 18.33° C | 80% | 1013.2 hPa | 0 mm | - | - | - |
| 1777425605 | 18.89° C | 78% | 1012.6 hPa | 0 mm | - | - | - |
| 1777425004 | 18.89° C | 77% | 1012.3 hPa | 0 mm | - | - | - |
| 1777423206 | 19.44° C | 75% | 1012 hPa | 0 mm | - | - | - |
| 1777422308 | 20° C | - | 1012 hPa | 0 mm | - | - | - |
| 1777419608 | 21.11° C | 71% | 1012.2 hPa | 0 mm | - | - | - |
| 1777416312 | 22.22° C | 68% | 1012.3 hPa | 0 mm | - | - | - |
| 1777414810 | 21.67° C | 68% | 1012.8 hPa | 0 mm | - | - | - |
* Rain latest hour (hover to see other rain measurements)
** Current wind speed in m/s (hover to see current wind gust speed)